Time;durP1;ratioP1;P1;durP2;ratioP2;P2;SDS_P1;SDS_P2;PMS_P1;PMS_P2;Temp;Humidity;BMP_temperature;BMP_pressure;BME280_temperature;BME280_humidity;BME280_pressure;Samples;Min_cycle;Max_cycle;Signal;HPM_P1;HPM_P2
2022/01/17 00:02:23;;;;;;;4.35;1.70;;;2.10;99.90;;;;;;4976915;28;20045;-73
2022/01/17 00:04:49;;;;;;;0.57;0.57;;;2.10;99.90;;;;;;4976784;28;20035;-79
2022/01/17 00:07:15;;;;;;;3.13;2.10;;;2.10;99.90;;;;;;4976402;28;20533;-79
2022/01/17 00:09:41;;;;;;;1.85;1.02;;;2.10;99.90;;;;;;4976188;28;20039;-73
2022/01/17 00:12:08;;;;;;;6.20;1.88;;;2.20;99.90;;;;;;4975563;28;20034;-79
2022/01/17 00:14:39;;;;;;;1.20;0.85;;;2.20;99.90;;;;;;4976743;28;20053;-79
2022/01/17 00:17:28;;;;;;;1.33;1.27;;;2.10;99.90;;;;;;4978336;28;20486;-79
2022/01/17 00:19:56;;;;;;;1.20;1.10;;;2.20;99.90;;;;;;4995904;28;20367;-73
2022/01/17 00:22:22;;;;;;;3.72;1.13;;;2.20;99.90;;;;;;4995447;28;20030;-73
2022/01/17 00:24:50;;;;;;;3.92;1.67;;;2.20;99.90;;;;;;4996021;28;20029;-73
2022/01/17 00:27:16;;;;;;;3.45;3.15;;;2.20;99.90;;;;;;4995874;28;20030;-79
2022/01/17 00:29:42;;;;;;;6.40;3.05;;;2.20;99.90;;;;;;4995934;28;20026;-79
2022/01/17 00:32:08;;;;;;;1.27;1.20;;;2.20;99.90;;;;;;4994513;28;20030;-79
2022/01/17 00:34:34;;;;;;;1.88;1.35;;;2.20;99.90;;;;;;4995544;28;20482;-73
2022/01/17 00:36:59;;;;;;;4.35;1.77;;;2.20;99.90;;;;;;4995483;28;20037;-73
2022/01/17 00:39:26;;;;;;;0.47;0.47;;;2.20;99.90;;;;;;4995631;28;20022;-79
2022/01/17 00:41:51;;;;;;;1.08;1.08;;;2.20;99.90;;;;;;4995754;28;20055;-79
2022/01/17 00:44:22;;;;;;;4.35;3.00;;;2.10;99.90;;;;;;4995495;28;20026;-73
2022/01/17 00:46:49;;;;;;;2.65;2.47;;;2.10;99.90;;;;;;4974957;28;20042;-79
2022/01/17 00:49:15;;;;;;;1.40;1.05;;;2.20;99.90;;;;;;4974629;28;20577;-73
2022/01/17 00:51:41;;;;;;;1.13;1.13;;;2.10;99.90;;;;;;4974297;28;20109;-79
2022/01/17 00:54:06;;;;;;;1.05;0.95;;;2.10;99.90;;;;;;4982831;28;20477;-79
2022/01/17 00:56:32;;;;;;;0.68;0.68;;;2.10;99.90;;;;;;4994078;28;20030;-79
2022/01/17 00:58:58;;;;;;;1.77;1.67;;;2.20;99.90;;;;;;4993895;28;20041;-79
2022/01/17 01:01:24;;;;;;;1.08;1.08;;;2.20;99.90;;;;;;4995346;28;20036;-73
2022/01/17 01:03:49;;;;;;;2.33;1.75;;;2.20;99.90;;;;;;4995393;28;20026;-73
2022/01/17 01:06:15;;;;;;;2.38;1.73;;;2.20;99.90;;;;;;4994879;28;20069;-79
2022/01/17 01:08:41;;;;;;;1.13;1.02;;;2.20;99.90;;;;;;4993776;28;20033;-79
2022/01/17 01:11:07;;;;;;;1.90;1.80;;;2.20;99.90;;;;;;4994165;28;20507;-79
2022/01/17 01:13:33;;;;;;;0.93;0.93;;;2.20;99.90;;;;;;4994512;28;20026;-80
2022/01/17 01:29:03;;;;;;;2.47;1.38;;;2.40;99.90;;;;;;4995000;28;20041;-73
2022/01/17 01:31:44;;;;;;;0.85;0.85;;;2.40;99.90;;;;;;4994780;28;20405;-79
2022/01/17 01:34:11;;;;;;;1.95;1.63;;;2.30;99.90;;;;;;4994588;28;20032;-73
2022/01/17 01:36:38;;;;;;;1.70;1.45;;;2.30;99.90;;;;;;4994362;28;20470;-79
2022/01/17 01:39:06;;;;;;;0.65;0.65;;;2.40;99.90;;;;;;4994615;28;20065;-79
2022/01/17 01:41:42;;;;;;;2.08;1.88;;;2.40;99.90;;;;;;4994596;28;20096;-79
2022/01/17 01:44:14;;;;;;;1.45;0.90;;;2.40;99.90;;;;;;4994517;28;20378;-78
2022/01/17 01:46:40;;;;;;;0.57;0.57;;;2.50;99.90;;;;;;4976796;28;20103;-79
2022/01/17 01:49:06;;;;;;;1.15;1.13;;;2.40;99.90;;;;;;4974731;28;20105;-79
2022/01/17 01:51:32;;;;;;;0.35;0.35;;;2.40;99.90;;;;;;4974426;28;20110;-79
2022/01/17 01:53:57;;;;;;;0.55;0.55;;;2.40;99.90;;;;;;4974670;28;20066;-79
2022/01/17 01:56:23;;;;;;;3.08;2.80;;;2.40;99.90;;;;;;4973578;28;20019;-79
2022/01/17 01:58:49;;;;;;;10.18;2.95;;;2.40;99.90;;;;;;4974244;28;20035;-79
2022/01/17 02:01:14;;;;;;;2.22;1.73;;;2.40;99.90;;;;;;4974676;28;20030;-79
2022/01/17 02:03:40;;;;;;;1.70;1.60;;;2.40;99.90;;;;;;4974207;28;20031;-73
2022/01/17 02:06:06;;;;;;;1.35;1.27;;;2.50;99.90;;;;;;4974655;28;20054;-79
2022/01/17 02:08:32;;;;;;;1.55;1.45;;;2.50;99.90;;;;;;4974314;28;20038;-73
2022/01/17 02:10:58;;;;;;;1.80;1.70;;;2.40;99.90;;;;;;4973098;28;20085;-73
2022/01/17 02:13:25;;;;;;;1.60;1.20;;;2.50;99.90;;;;;;4973879;28;20062;-79
2022/01/17 02:15:59;;;;;;;1.95;1.40;;;2.50;99.90;;;;;;4972952;28;20050;-79
2022/01/17 02:18:30;;;;;;;0.82;0.82;;;2.50;99.90;;;;;;4985680;28;20429;-73
2022/01/17 02:23:41;;;;;;;2.03;1.92;;;2.50;99.90;;;;;;4993642;28;20405;-79
2022/01/17 02:26:08;;;;;;;4.93;2.13;;;2.50;99.90;;;;;;4993610;28;20390;-79
2022/01/17 02:28:35;;;;;;;1.45;1.38;;;2.50;99.90;;;;;;4992299;28;20466;-79
2022/01/17 02:31:01;;;;;;;1.90;1.77;;;2.50;99.90;;;;;;4993536;28;20077;-79
2022/01/17 02:33:27;;;;;;;1.75;1.42;;;2.50;99.90;;;;;;4993581;28;20474;-73
2022/01/17 02:35:53;;;;;;;3.25;1.05;;;2.50;99.90;;;;;;4992343;28;20026;-79
2022/01/17 02:38:19;;;;;;;0.28;0.28;;;2.60;99.90;;;;;;4992943;28;20109;-79
2022/01/17 02:40:45;;;;;;;1.98;1.75;;;2.50;99.90;;;;;;4993575;28;20054;-79
2022/01/17 02:43:10;;;;;;;0.70;0.70;;;2.50;99.90;;;;;;4993014;28;20034;-79
2022/01/17 02:46:24;;;;;;;1.77;1.67;;;2.50;99.90;;;;;;4983001;28;20027;-73
2022/01/17 02:48:25;;;;;;;2.30;2.08;;;2.50;99.90;;;;;;4973627;28;20113;-78
2022/01/17 02:50:51;;;;;;;0.60;0.60;;;2.50;99.90;;;;;;4973831;28;20081;-79
2022/01/17 02:53:17;;;;;;;0.82;0.82;;;2.50;99.90;;;;;;4973545;28;20062;-79
2022/01/17 02:55:49;;;;;;;4.28;2.65;;;2.60;99.90;;;;;;4973998;28;20039;-79
2022/01/17 02:58:18;;;;;;;1.75;1.65;;;2.60;99.90;;;;;;4974171;28;20390;-73
2022/01/17 03:00:43;;;;;;;0.28;0.28;;;2.60;99.90;;;;;;4972390;28;20080;-79
2022/01/17 03:03:13;;;;;;;1.27;1.23;;;2.50;99.90;;;;;;4973923;28;20433;-74
2022/01/17 03:05:39;;;;;;;0.65;0.65;;;2.60;99.90;;;;;;4973708;28;20024;-79
2022/01/17 03:08:05;;;;;;;1.73;1.45;;;2.50;99.90;;;;;;4973726;28;20023;-79
2022/01/17 03:10:40;;;;;;;1.63;1.52;;;2.50;99.90;;;;;;4973459;28;20379;-79
2022/01/17 03:13:15;;;;;;;2.83;2.28;;;2.50;99.90;;;;;;4973044;28;20027;-73
2022/01/17 03:15:42;;;;;;;1.13;0.85;;;2.50;99.90;;;;;;4973894;28;20053;-80
2022/01/17 03:18:08;;;;;;;0.47;0.47;;;2.50;99.90;;;;;;4986592;28;20022;-79
2022/01/17 03:20:34;;;;;;;1.67;0.93;;;2.60;99.90;;;;;;4995715;28;20026;-80
2022/01/17 03:23:01;;;;;;;0.55;0.55;;;2.50;99.90;;;;;;4996752;28;20080;-74
2022/01/17 03:25:27;;;;;;;71.57;1.63;;;2.50;99.90;;;;;;4997124;28;20118;-73
2022/01/17 03:27:53;;;;;;;1.25;1.20;;;2.60;99.90;;;;;;4995674;28;20023;-79
2022/01/17 03:30:19;;;;;;;0.95;0.95;;;2.60;99.90;;;;;;4996760;28;20038;-80
2022/01/17 03:32:44;;;;;;;0.40;0.40;;;2.50;99.90;;;;;;4996854;28;20069;-80
2022/01/17 03:35:10;;;;;;;1.75;1.15;;;2.60;99.90;;;;;;4996971;28;20065;-80
2022/01/17 03:37:36;;;;;;;6.35;1.65;;;2.60;99.90;;;;;;4996570;28;20029;-73
2022/01/17 03:40:03;;;;;;;0.43;0.43;;;2.70;99.90;;;;;;4996874;28;20485;-73
2022/01/17 03:42:29;;;;;;;0.15;0.15;;;2.60;99.90;;;;;;4996726;28;20042;-80
2022/01/17 03:44:55;;;;;;;0.00;0.00;;;2.60;99.90;;;;;;4993162;28;20034;-80
2022/01/17 03:47:20;;;;;;;0.40;0.40;;;2.50;99.90;;;;;;4976110;28;20560;-80
2022/01/17 03:49:46;;;;;;;1.15;1.02;;;2.50;99.90;;;;;;4976910;28;20031;-80
2022/01/17 03:52:12;;;;;;;0.52;0.50;;;2.60;99.90;;;;;;4976630;28;20430;-80
2022/01/17 03:54:37;;;;;;;1.85;1.75;;;2.60;99.90;;;;;;4975561;28;20027;-80
2022/01/17 03:57:03;;;;;;;1.55;1.45;;;2.60;99.90;;;;;;4976974;28;20078;-80
2022/01/17 03:59:29;;;;;;;0.95;0.95;;;2.50;99.90;;;;;;4976933;28;20035;-81
2022/01/17 04:01:55;;;;;;;2.65;2.10;;;2.50;99.90;;;;;;4976862;28;20019;-80
2022/01/17 04:04:21;;;;;;;1.00;0.70;;;2.50;99.90;;;;;;4976962;28;20497;-74
2022/01/17 04:06:47;;;;;;;0.57;0.50;;;2.60;99.90;;;;;;4976048;28;20039;-81
2022/01/17 04:09:13;;;;;;;1.42;1.42;;;2.60;99.90;;;;;;4975236;28;20035;-81
2022/01/17 04:11:39;;;;;;;1.15;1.10;;;2.60;99.90;;;;;;4975854;28;20401;-81
2022/01/17 04:14:09;;;;;;;1.92;0.57;;;2.60;99.90;;;;;;4974729;28;20031;-81
2022/01/17 04:16:34;;;;;;;1.52;1.42;;;2.60;99.90;;;;;;4976600;28;20126;-74
2022/01/17 04:19:00;;;;;;;5.47;2.55;;;2.60;99.90;;;;;;4987975;28;20106;-74
2022/01/17 04:21:31;;;;;;;1.50;0.93;;;2.60;99.90;;;;;;4976421;28;20557;-81
2022/01/17 04:23:57;;;;;;;2.00;1.30;;;2.60;99.90;;;;;;4976468;28;20023;-81
2022/01/17 04:26:23;;;;;;;1.10;1.05;;;2.60;99.90;;;;;;4980916;28;20457;-81
2022/01/17 04:28:48;;;;;;;0.75;0.75;;;2.60;99.90;;;;;;4995886;28;20421;-74
2022/01/17 04:31:14;;;;;;;0.47;0.47;;;2.60;99.90;;;;;;4994449;28;20560;-74
2022/01/17 04:33:40;;;;;;;2.10;1.77;;;2.60;99.90;;;;;;4995890;28;20011;-81
2022/01/17 04:36:07;;;;;;;0.60;0.52;;;2.60;99.90;;;;;;4995830;28;20496;-82
2022/01/17 04:38:33;;;;;;;4.60;0.68;;;2.60;99.90;;;;;;4995680;28;20497;-81
2022/01/17 04:41:05;;;;;;;1.85;0.82;;;2.60;99.90;;;;;;4995618;28;20026;-81
2022/01/17 04:46:03;;;;;;;1.87;1.03;;;2.60;99.90;;;;;;4983123;28;20030;-81
2022/01/17 04:48:30;;;;;;;0.73;0.65;;;2.60;99.90;;;;;;4974276;28;20121;-81
2022/01/17 04:50:55;;;;;;;0.65;0.65;;;2.60;99.90;;;;;;4975947;28;20030;-74
2022/01/17 04:53:22;;;;;;;0.45;0.45;;;2.60;99.90;;;;;;4975464;28;20023;-82
2022/01/17 04:55:48;;;;;;;0.68;0.52;;;2.60;99.90;;;;;;4975993;28;20038;-81
2022/01/17 04:58:15;;;;;;;0.40;0.35;;;2.60;99.90;;;;;;4976013;28;20034;-80
2022/01/17 05:00:46;;;;;;;0.70;0.70;;;2.60;99.90;;;;;;4974515;28;20074;-81
2022/01/17 05:03:14;;;;;;;0.35;0.35;;;2.60;99.90;;;;;;4975937;28;20027;-81
2022/01/17 05:05:40;;;;;;;4.93;1.85;;;2.60;99.90;;;;;;4974604;28;20031;-82
2022/01/17 05:08:06;;;;;;;0.22;0.22;;;2.60;99.90;;;;;;4975444;28;20027;-82
2022/01/17 05:10:32;;;;;;;1.13;0.52;;;2.70;99.90;;;;;;4975408;28;20034;-74
2022/01/17 05:12:57;;;;;;;0.30;0.30;;;2.70;99.90;;;;;;4975666;28;20046;-81
2022/01/17 05:15:36;;;;;;;1.70;1.48;;;2.70;99.90;;;;;;4974723;28;20537;-81
2022/01/17 05:20:37;;;;;;;0.03;0.03;;;2.60;99.90;;;;;;4995311;28;20030;-82
2022/01/17 05:23:03;;;;;;;0.75;0.73;;;2.60;99.90;;;;;;4994467;28;20037;-74
2022/01/17 05:25:29;;;;;;;1.58;1.48;;;2.60;99.90;;;;;;4994838;28;20030;-82
2022/01/17 05:27:54;;;;;;;0.13;0.13;;;2.70;99.90;;;;;;4994475;28;20050;-82
2022/01/17 05:30:22;;;;;;;0.00;0.00;;;2.70;99.90;;;;;;4994691;28;20074;-81
2022/01/17 05:32:48;;;;;;;1.17;1.08;;;2.70;99.90;;;;;;4994716;28;20058;-82
2022/01/17 05:35:15;;;;;;;0.88;0.80;;;2.80;99.90;;;;;;4993513;28;20023;-74
2022/01/17 05:37:42;;;;;;;0.95;0.70;;;2.80;99.90;;;;;;4994177;28;20088;-82
2022/01/17 05:40:10;;;;;;;0.00;0.00;;;2.70;99.90;;;;;;4994067;28;20022;-81
2022/01/17 05:42:36;;;;;;;3.20;0.90;;;2.70;99.90;;;;;;4994628;28;20493;-81
2022/01/17 05:45:03;;;;;;;2.45;1.48;;;2.70;99.90;;;;;;4990152;28;20070;-81
2022/01/17 05:47:29;;;;;;;0.32;0.30;;;2.80;99.90;;;;;;4974894;28;20027;-74
2022/01/17 05:49:55;;;;;;;1.20;1.10;;;2.80;99.90;;;;;;4974852;28;20030;-74
2022/01/17 05:52:20;;;;;;;0.15;0.15;;;2.80;99.90;;;;;;4974521;28;20031;-82
2022/01/17 05:54:46;;;;;;;2.53;1.33;;;2.80;99.90;;;;;;4974667;28;20027;-84
2022/01/17 05:57:12;;;;;;;0.63;0.60;;;2.80;99.90;;;;;;4974806;28;20053;-83
2022/01/17 05:59:38;;;;;;;1.48;1.02;;;2.80;99.90;;;;;;4987592;28;20030;-81
2022/01/17 06:02:04;;;;;;;1.42;1.05;;;2.80;99.90;;;;;;4993933;28;20026;-74
2022/01/17 06:04:31;;;;;;;0.50;0.50;;;2.80;99.90;;;;;;4992555;28;20494;-81
2022/01/17 06:06:56;;;;;;;1.33;1.17;;;2.80;99.90;;;;;;4993746;28;20033;-81
2022/01/17 06:09:22;;;;;;;0.77;0.77;;;2.90;99.90;;;;;;4993544;28;20097;-74
2022/01/17 06:11:48;;;;;;;0.82;0.82;;;2.90;99.90;;;;;;4993886;28;20136;-82
2022/01/17 06:14:18;;;;;;;0.30;0.30;;;2.90;99.90;;;;;;4993844;28;20040;-74
2022/01/17 06:16:45;;;;;;;0.30;0.30;;;2.90;99.90;;;;;;4991934;28;20454;-83
2022/01/17 06:19:11;;;;;;;0.50;0.50;;;2.90;99.90;;;;;;4993194;28;20031;-82
2022/01/17 06:21:37;;;;;;;0.68;0.68;;;2.90;99.90;;;;;;4992529;28;20406;-82
2022/01/17 06:24:05;;;;;;;0.05;0.05;;;2.90;99.90;;;;;;4993279;28;20023;-82
2022/01/17 06:26:34;;;;;;;0.10;0.10;;;2.90;99.90;;;;;;4993558;28;20022;-75
2022/01/17 06:29:00;;;;;;;0.08;0.08;;;2.90;99.90;;;;;;4993661;28;20035;-75
2022/01/17 06:31:26;;;;;;;0.00;0.00;;;3.00;99.90;;;;;;4993529;28;20084;-82
2022/01/17 06:33:51;;;;;;;0.20;0.20;;;3.00;99.90;;;;;;4993553;28;20114;-82
2022/01/17 06:36:17;;;;;;;1.35;1.15;;;3.00;99.90;;;;;;4991776;28;20077;-81
2022/01/17 06:38:42;;;;;;;1.00;0.35;;;3.00;99.90;;;;;;4993255;28;20026;-75
2022/01/17 06:41:08;;;;;;;1.20;0.55;;;3.00;99.90;;;;;;4993607;28;20137;-75
2022/01/17 06:43:34;;;;;;;4.15;2.53;;;3.00;99.90;;;;;;4993499;28;20099;-82
2022/01/17 06:45:59;;;;;;;0.55;0.55;;;3.00;99.90;;;;;;4990626;28;20035;-81
2022/01/17 06:48:25;;;;;;;0.35;0.25;;;3.10;99.90;;;;;;4991650;28;20568;-81
2022/01/17 06:50:51;;;;;;;1.13;1.00;;;3.10;99.90;;;;;;4992366;28;20041;-81
2022/01/17 06:53:16;;;;;;;0.77;0.35;;;3.00;99.90;;;;;;4992062;28;20128;-75
2022/01/17 06:55:42;;;;;;;0.32;0.25;;;3.00;99.90;;;;;;4993029;28;20039;-82
2022/01/17 06:58:08;;;;;;;0.57;0.57;;;3.10;99.90;;;;;;4992434;28;20026;-74
2022/01/17 07:00:34;;;;;;;0.30;0.30;;;3.10;99.90;;;;;;4992910;28;20030;-80
2022/01/17 07:02:59;;;;;;;0.90;0.90;;;3.10;99.90;;;;;;4985271;28;20034;-74
2022/01/17 07:05:25;;;;;;;0.00;0.00;;;3.20;99.90;;;;;;4975470;28;20453;-75
2022/01/17 07:07:51;;;;;;;4.85;0.70;;;3.20;99.90;;;;;;4983985;28;20040;-75
2022/01/17 07:10:16;;;;;;;0.43;0.43;;;3.20;99.90;;;;;;4983538;28;20767;-79
2022/01/17 07:12:42;;;;;;;0.15;0.13;;;3.20;99.90;;;;;;4984801;28;20027;-80
2022/01/17 07:15:08;;;;;;;1.15;0.93;;;3.20;99.90;;;;;;4982046;28;20133;-74
2022/01/17 07:17:34;;;;;;;0.13;0.13;;;3.30;99.90;;;;;;4983590;28;20015;-75
2022/01/17 07:20:01;;;;;;;0.57;0.57;;;3.30;99.90;;;;;;4991527;28;20031;-75
2022/01/17 07:22:27;;;;;;;1.27;0.85;;;3.30;99.90;;;;;;4991627;28;20027;-77
2022/01/17 07:24:54;;;;;;;0.77;0.77;;;3.30;99.90;;;;;;4991847;28;20034;-78
2022/01/17 07:27:20;;;;;;;0.00;0.00;;;3.30;99.90;;;;;;4990132;28;20042;-78
2022/01/17 07:29:45;;;;;;;0.20;0.20;;;3.30;99.90;;;;;;4989456;28;20085;-75
2022/01/17 07:32:11;;;;;;;0.50;0.50;;;3.30;99.90;;;;;;4986100;28;20031;-75
2022/01/17 07:34:37;;;;;;;0.47;0.47;;;3.30;99.90;;;;;;4981642;28;20340;-77
2022/01/17 07:37:04;;;;;;;0.98;0.95;;;3.30;99.90;;;;;;4983872;28;20076;-78
2022/01/17 07:39:29;;;;;;;0.10;0.10;;;3.30;99.90;;;;;;4982785;28;20161;-78
2022/01/17 07:41:55;;;;;;;0.25;0.25;;;3.30;99.90;;;;;;4982057;28;20538;-75
2022/01/17 07:44:23;;;;;;;0.70;0.70;;;3.30;99.90;;;;;;4985617;28;20026;-76
2022/01/17 07:46:54;;;;;;;0.80;0.77;;;3.30;99.90;;;;;;4981276;28;20140;-76
2022/01/17 07:49:21;;;;;;;2.50;1.55;;;3.20;99.90;;;;;;4988044;28;20506;-78
2022/01/17 07:51:59;;;;;;;1.20;1.17;;;3.30;99.90;;;;;;4985084;28;20113;-78
2022/01/17 07:54:26;;;;;;;0.40;0.40;;;3.20;99.90;;;;;;4987206;28;20026;-78
2022/01/17 07:56:52;;;;;;;0.55;0.55;;;3.20;99.90;;;;;;4990753;28;20023;-75
2022/01/17 07:59:19;;;;;;;1.10;0.85;;;3.20;99.90;;;;;;4988527;28;20190;-78
2022/01/17 08:01:44;;;;;;;1.13;1.13;;;3.20;99.90;;;;;;4983359;28;20378;-78
2022/01/17 08:04:11;;;;;;;2.92;0.95;;;3.10;99.90;;;;;;4975316;28;20044;-77
2022/01/17 08:06:39;;;;;;;3.05;1.52;;;3.20;99.90;;;;;;4983489;28;20041;-78
2022/01/17 08:09:14;;;;;;;0.47;0.47;;;3.20;99.90;;;;;;4982728;28;20034;-78
2022/01/17 08:11:40;;;;;;;1.30;0.63;;;3.10;99.90;;;;;;4990805;28;20512;-75
2022/01/17 08:14:06;;;;;;;6.80;2.25;;;3.20;99.90;;;;;;4992842;28;20022;-78
2022/01/17 08:16:32;;;;;;;0.00;0.00;;;3.20;99.90;;;;;;4991436;28;20061;-78
2022/01/17 08:18:58;;;;;;;0.10;0.10;;;3.20;99.90;;;;;;4989015;28;20034;-75
2022/01/17 08:21:23;;;;;;;0.15;0.13;;;3.20;99.90;;;;;;4991835;28;20486;-78
2022/01/17 08:23:50;;;;;;;0.55;0.55;;;3.20;99.90;;;;;;4985102;28;20502;-75
2022/01/17 08:26:18;;;;;;;1.80;0.47;;;3.20;99.90;;;;;;4985956;28;20439;-78
2022/01/17 08:28:43;;;;;;;1.10;1.00;;;3.20;99.90;;;;;;4992529;28;20563;-78
2022/01/17 08:31:09;;;;;;;1.25;1.15;;;3.30;99.90;;;;;;4989542;28;20031;-78
2022/01/17 08:33:35;;;;;;;3.13;0.75;;;3.20;99.90;;;;;;4992064;28;20022;-78
2022/01/17 08:36:00;;;;;;;0.70;0.68;;;3.10;99.90;;;;;;4974647;28;20594;-78
2022/01/17 08:38:29;;;;;;;0.30;0.30;;;3.10;99.90;;;;;;4985641;28;20109;-75
2022/01/17 08:40:55;;;;;;;0.25;0.25;;;3.20;99.90;;;;;;4993318;28;20022;-78
2022/01/17 08:43:21;;;;;;;0.75;0.75;;;3.30;99.90;;;;;;4992354;28;20378;-78
2022/01/17 08:45:48;;;;;;;0.50;0.50;;;3.30;99.90;;;;;;4981624;28;20038;-78
2022/01/17 08:48:14;;;;;;;0.50;0.50;;;3.40;99.90;;;;;;4987955;28;20031;-78
2022/01/17 08:50:41;;;;;;;0.20;0.20;;;3.40;99.90;;;;;;4988652;28;20031;-75
2022/01/17 08:53:13;;;;;;;0.03;0.03;;;3.40;99.90;;;;;;4975107;28;20034;-78
2022/01/17 08:55:39;;;;;;;0.43;0.43;;;3.40;99.90;;;;;;4977231;28;20018;-77
2022/01/17 08:58:06;;;;;;;1.35;1.25;;;3.50;99.90;;;;;;4977804;28;20510;-76
2022/01/17 09:00:32;;;;;;;1.35;1.23;;;3.40;99.90;;;;;;4981575;28;20018;-77
2022/01/17 09:03:01;;;;;;;6.13;0.82;;;3.40;99.90;;;;;;4989599;28;20041;-76
2022/01/17 09:05:27;;;;;;;1.05;1.00;;;3.60;99.90;;;;;;4972909;28;20029;-74
2022/01/17 09:07:52;;;;;;;0.50;0.50;;;3.60;99.90;;;;;;4985440;28;20137;-77
2022/01/17 09:10:18;;;;;;;0.25;0.25;;;3.80;99.90;;;;;;4993092;28;20518;-76
2022/01/17 09:12:44;;;;;;;0.73;0.73;;;3.90;99.90;;;;;;4992983;28;20179;-77
2022/01/17 09:15:10;;;;;;;0.43;0.43;;;4.00;99.90;;;;;;4990307;28;20046;-74
2022/01/17 09:17:37;;;;;;;0.70;0.70;;;4.00;99.90;;;;;;4990265;28;20485;-74
2022/01/17 09:20:04;;;;;;;0.30;0.30;;;4.00;99.90;;;;;;4991944;28;20449;-77
2022/01/17 09:22:29;;;;;;;0.22;0.22;;;4.00;99.90;;;;;;4991462;28;20054;-78
2022/01/17 09:24:56;;;;;;;0.52;0.47;;;4.10;99.90;;;;;;4991173;28;20624;-78
2022/01/17 09:27:21;;;;;;;1.00;1.00;;;4.00;99.90;;;;;;4992605;28;20394;-77
2022/01/17 09:29:47;;;;;;;0.85;0.85;;;4.10;99.90;;;;;;4991232;28;20031;-74
2022/01/17 09:32:14;;;;;;;0.30;0.30;;;4.10;99.90;;;;;;4989400;28;20035;-78
2022/01/17 09:34:42;;;;;;;0.47;0.47;;;4.10;99.90;;;;;;4981715;28;20101;-77
2022/01/17 09:37:09;;;;;;;0.68;0.35;;;4.20;99.90;;;;;;4992572;28;20049;-76
2022/01/17 09:39:37;;;;;;;0.00;0.00;;;4.30;99.90;;;;;;4992155;28;20149;-78
2022/01/17 09:42:05;;;;;;;0.20;0.20;;;4.40;99.90;;;;;;4992232;28;20084;-78
2022/01/17 09:44:31;;;;;;;0.98;0.98;;;4.50;99.90;;;;;;4988225;28;20030;-76
2022/01/17 09:46:57;;;;;;;0.47;0.47;;;4.50;99.90;;;;;;4989234;28;20402;-78
2022/01/17 09:49:37;;;;;;;0.98;0.98;;;4.50;99.90;;;;;;4990229;28;20104;-77
2022/01/17 09:52:54;;;;;;;0.43;0.35;;;4.70;99.90;;;;;;4987617;28;20068;-77
2022/01/17 09:54:56;;;;;;;2.40;0.38;;;4.70;99.90;;;;;;4984492;28;20113;-76
2022/01/17 09:57:23;;;;;;;0.35;0.35;;;4.80;99.90;;;;;;4982025;28;20033;-79
2022/01/17 09:59:48;;;;;;;0.10;0.10;;;4.80;99.90;;;;;;4980763;28;20049;-78
2022/01/17 10:02:15;;;;;;;0.20;0.20;;;4.90;99.90;;;;;;4984102;28;20470;-78
2022/01/17 10:04:41;;;;;;;1.45;1.35;;;5.00;99.90;;;;;;4981970;28;20096;-78
2022/01/17 10:07:07;;;;;;;0.28;0.28;;;5.00;99.90;;;;;;4986710;28;20571;-76
2022/01/17 10:09:35;;;;;;;1.08;1.08;;;5.10;99.90;;;;;;4991246;28;20165;-76
2022/01/17 10:12:05;;;;;;;1.63;1.40;;;5.10;99.90;;;;;;4991769;28;20390;-78
2022/01/17 10:14:36;;;;;;;0.32;0.32;;;5.20;99.90;;;;;;4980408;28;20035;-78
2022/01/17 10:17:14;;;;;;;0.20;0.20;;;5.20;99.90;;;;;;4972409;28;20033;-78
2022/01/17 10:19:41;;;;;;;1.00;0.98;;;5.20;99.90;;;;;;4979853;28;20022;-76
2022/01/17 10:22:18;;;;;;;0.88;0.80;;;5.40;99.90;;;;;;4977396;28;20239;-76
2022/01/17 10:25:02;;;;;;;2.00;0.80;;;5.40;99.90;;;;;;4992004;28;20030;-78
2022/01/17 10:30:32;;;;;;;0.38;0.20;;;5.60;99.90;;;;;;4991852;28;20026;-78
2022/01/17 10:35:57;;;;;;;1.65;1.27;;;5.70;99.90;;;;;;4991978;28;20093;-76
2022/01/17 10:38:24;;;;;;;0.10;0.10;;;5.70;99.90;;;;;;4988629;28;20034;-78
2022/01/17 10:40:50;;;;;;;0.90;0.80;;;5.80;99.90;;;;;;4984383;28;20033;-78
2022/01/17 10:43:36;;;;;;;0.63;0.52;;;5.80;99.90;;;;;;4983282;28;20029;-77
2022/01/17 10:46:05;;;;;;;0.30;0.30;;;5.90;99.90;;;;;;4985967;28;20034;-76
2022/01/17 10:48:34;;;;;;;2.33;2.00;;;6.00;99.90;;;;;;4991015;28;20032;-75
2022/01/17 10:51:01;;;;;;;2.42;1.15;;;6.00;99.90;;;;;;4988476;28;20513;-78
2022/01/17 10:53:27;;;;;;;0.22;0.22;;;6.10;99.90;;;;;;4972279;28;20037;-78
2022/01/17 10:55:56;;;;;;;0.22;0.22;;;6.20;99.90;;;;;;4990022;28;20030;-78
2022/01/17 10:58:26;;;;;;;6.03;2.10;;;6.40;99.90;;;;;;4989077;28;20077;-77
2022/01/17 11:00:58;;;;;;;0.63;0.43;;;6.60;99.90;;;;;;4988119;28;20049;-75
2022/01/17 11:03:32;;;;;;;0.82;0.82;;;6.70;99.90;;;;;;4989148;28;20022;-78
2022/01/17 11:06:04;;;;;;;0.88;0.65;;;6.70;99.90;;;;;;4980631;28;20057;-77
2022/01/17 11:08:32;;;;;;;0.00;0.00;;;6.80;99.90;;;;;;4979897;28;20109;-78
2022/01/17 11:11:01;;;;;;;0.17;0.17;;;7.00;99.90;;;;;;4980386;28;20026;-78
2022/01/17 11:13:30;;;;;;;0.15;0.15;;;7.10;99.90;;;;;;4989333;28;20030;-75
2022/01/17 11:16:00;;;;;;;0.98;0.95;;;7.20;99.90;;;;;;4971778;28;20046;-78
2022/01/17 11:18:28;;;;;;;0.00;0.00;;;7.30;99.90;;;;;;4971480;28;20493;-76
2022/01/17 11:21:01;;;;;;;1.02;1.02;;;7.40;99.90;;;;;;4969680;28;20031;-77
2022/01/17 11:23:28;;;;;;;0.73;0.73;;;7.60;99.90;;;;;;4971680;28;20034;-78
2022/01/17 11:25:55;;;;;;;0.50;0.50;;;7.50;99.90;;;;;;4972194;28;20039;-75
2022/01/17 11:28:27;;;;;;;0.50;0.50;;;7.60;99.90;;;;;;4982633;28;20375;-76
2022/01/17 11:30:56;;;;;;;7.95;2.17;;;7.60;99.90;;;;;;4974551;28;20031;-78
2022/01/17 11:33:23;;;;;;;1.27;1.10;;;7.60;99.90;;;;;;4970320;28;20043;-78
2022/01/17 11:35:53;;;;;;;0.25;0.25;;;7.70;99.90;;;;;;4983203;28;20031;-78
2022/01/17 11:38:28;;;;;;;0.20;0.20;;;7.90;99.90;;;;;;4993815;28;20038;-75
2022/01/17 11:40:55;;;;;;;0.05;0.05;;;8.00;99.90;;;;;;4988928;28;20458;-75
2022/01/17 11:43:24;;;;;;;0.88;0.88;;;8.20;99.90;;;;;;4991662;28;20502;-77
2022/01/17 11:45:53;;;;;;;0.88;0.82;;;8.40;99.90;;;;;;4994021;28;20030;-77
2022/01/17 11:48:30;;;;;;;1.55;0.98;;;8.40;99.90;;;;;;4988551;28;20512;-78
2022/01/17 11:50:59;;;;;;;0.10;0.10;;;8.60;99.90;;;;;;4978953;28;20659;-76
2022/01/17 11:53:26;;;;;;;0.60;0.60;;;8.70;99.90;;;;;;4985479;28;20172;-75
2022/01/17 11:55:52;;;;;;;0.22;0.22;;;8.90;99.90;;;;;;4973453;28;20121;-76
2022/01/17 11:58:44;;;;;;;0.20;0.20;;;9.00;99.90;;;;;;4989184;28;20110;-77
2022/01/17 12:01:16;;;;;;;0.28;0.22;;;9.20;99.90;;;;;;4981035;28;20045;-77
2022/01/17 12:03:51;;;;;;;0.77;0.60;;;9.30;99.90;;;;;;4988300;28;20034;-76
2022/01/17 12:06:27;;;;;;;0.40;0.28;;;9.50;99.90;;;;;;4979066;28;20144;-76
2022/01/17 12:09:25;;;;;;;0.40;0.40;;;9.50;99.90;;;;;;4990448;28;20038;-76
2022/01/17 12:12:12;;;;;;;0.70;0.52;;;9.60;99.90;;;;;;4986067;28;20501;-78
2022/01/17 12:14:44;;;;;;;0.85;0.60;;;9.80;99.90;;;;;;4990050;28;20177;-78
2022/01/17 12:17:26;;;;;;;0.00;0.00;;;9.90;99.90;;;;;;4982566;28;20037;-76
2022/01/17 12:20:03;;;;;;;0.03;0.03;;;10.10;99.90;;;;;;4989348;28;20023;-76
2022/01/17 12:22:47;;;;;;;0.63;0.63;;;10.20;99.90;;;;;;4974443;28;20039;-77
2022/01/17 12:25:25;;;;;;;0.85;0.50;;;10.40;99.90;;;;;;4982923;28;20026;-77
2022/01/17 12:28:16;;;;;;;0.20;0.20;;;10.70;99.90;;;;;;4985306;28;20519;-78
2022/01/17 12:30:58;;;;;;;1.85;1.40;;;10.50;99.90;;;;;;4989964;28;20375;-77
2022/01/17 12:33:38;;;;;;;1.20;0.10;;;10.80;99.90;;;;;;4988757;28;20025;-81
2022/01/17 12:36:24;;;;;;;0.10;0.10;;;10.70;99.90;;;;;;4987905;28;20026;-77
2022/01/17 12:38:51;;;;;;;7.85;0.85;;;10.70;99.90;;;;;;4986419;28;20030;-77
2022/01/17 12:41:34;;;;;;;0.10;0.10;;;10.40;99.90;;;;;;4988621;28;20045;-77
2022/01/17 12:44:24;;;;;;;0.30;0.30;;;10.40;99.90;;;;;;4980468;28;20021;-75
2022/01/17 12:46:53;;;;;;;0.55;0.55;;;10.00;99.90;;;;;;5002668;28;20030;-76
2022/01/17 12:49:20;;;;;;;0.60;0.60;;;9.90;99.90;;;;;;4986883;28;20102;-77
2022/01/17 12:51:51;;;;;;;0.90;0.90;;;9.90;99.90;;;;;;4985819;28;20034;-78
2022/01/17 12:54:22;;;;;;;0.85;0.85;;;10.10;99.90;;;;;;4991900;28;20033;-77
2022/01/17 12:56:50;;;;;;;1.27;0.98;;;10.50;99.90;;;;;;4993020;28;20441;-74
2022/01/17 12:59:17;;;;;;;0.70;0.68;;;10.90;99.90;;;;;;4978798;28;20564;-73
2022/01/17 13:01:48;;;;;;;0.52;0.45;;;10.80;99.90;;;;;;4987975;28;20054;-76
2022/01/17 13:04:16;;;;;;;0.40;0.40;;;10.90;99.90;;;;;;4979126;28;20381;-75
2022/01/17 13:06:43;;;;;;;0.20;0.20;;;11.30;99.90;;;;;;4981017;28;20054;-76
2022/01/17 13:09:12;;;;;;;2.63;0.52;;;11.30;99.90;;;;;;4984672;28;20386;-74
2022/01/17 13:11:43;;;;;;;1.13;0.93;;;10.80;99.90;;;;;;4992208;28;20107;-74
2022/01/17 13:14:10;;;;;;;2.40;0.57;;;10.30;99.90;;;;;;4983694;28;20019;-76
2022/01/17 13:16:38;;;;;;;0.40;0.40;;;10.00;99.90;;;;;;4992809;28;20042;-74
2022/01/17 13:19:07;;;;;;;0.47;0.47;;;10.20;99.90;;;;;;4992706;28;20027;-76
2022/01/17 13:21:34;;;;;;;0.20;0.20;;;10.60;99.90;;;;;;4992064;28;20407;-74
2022/01/17 13:24:12;;;;;;;0.50;0.45;;;11.40;99.90;;;;;;4991429;28;20053;-73
2022/01/17 13:26:41;;;;;;;0.22;0.22;;;11.50;99.90;;;;;;4992887;28;20057;-75
2022/01/17 13:29:09;;;;;;;0.38;0.38;;;10.80;99.90;;;;;;4992615;28;20200;-77